createdAt,value
2022-10-09T00:01:04.166Z,9.27
2022-10-09T00:03:31.213Z,11.80
2022-10-09T00:05:58.731Z,12.20
2022-10-09T00:08:26.015Z,11.98
2022-10-09T00:10:53.143Z,14.07
2022-10-09T00:13:20.440Z,11.68
2022-10-09T00:15:47.861Z,12.20
2022-10-09T00:18:17.741Z,11.23
2022-10-09T00:20:46.792Z,12.20
2022-10-09T00:23:16.703Z,10.95
2022-10-09T00:25:54.217Z,9.77
2022-10-09T00:28:23.356Z,8.35
2022-10-09T00:30:50.701Z,7.07
2022-10-09T00:33:17.861Z,8.65
2022-10-09T00:35:44.814Z,11.52
2022-10-09T00:38:12.593Z,11.07
2022-10-09T00:40:39.694Z,13.95
2022-10-09T00:43:18.789Z,14.27
2022-10-09T00:45:54.551Z,16.08
2022-10-09T00:48:22.818Z,15.65
2022-10-09T00:50:59.466Z,16.08
2022-10-09T00:55:56.171Z,13.00
2022-10-09T00:58:24.838Z,12.02
2022-10-09T01:00:52.392Z,8.88
2022-10-09T01:03:19.395Z,8.45
2022-10-09T01:05:55.196Z,5.93
2022-10-09T01:08:31.638Z,9.00
2022-10-09T01:11:04.264Z,8.82
2022-10-09T01:14:04.538Z,9.80
2022-10-09T01:16:43.170Z,8.93
2022-10-09T01:19:22.675Z,6.85
2022-10-09T01:21:56.775Z,4.63
2022-10-09T01:24:38.712Z,4.13
2022-10-09T01:27:15.540Z,4.25
2022-10-09T01:30:04.797Z,4.25
2022-10-09T01:32:36.754Z,3.95
2022-10-09T01:35:06.096Z,5.35
2022-10-09T01:37:34.764Z,4.40
2022-10-09T01:40:04.538Z,3.65
2022-10-09T01:42:32.585Z,3.38
2022-10-09T01:44:59.767Z,3.63
2022-10-09T01:47:27.105Z,4.40
2022-10-09T01:50:26.376Z,3.95
2022-10-09T01:53:10.447Z,3.60
2022-10-09T01:56:07.439Z,3.60
2022-10-09T01:58:40.064Z,3.85
2022-10-09T02:01:17.229Z,3.90
2022-10-09T02:03:48.067Z,3.63
2022-10-09T02:06:16.735Z,3.17
2022-10-09T02:08:47.081Z,3.85
2022-10-09T02:11:15.300Z,4.40
2022-10-09T02:13:43.839Z,3.47
2022-10-09T02:16:37.547Z,3.75
2022-10-09T02:19:16.491Z,3.95
2022-10-09T02:21:51.341Z,3.50
2022-10-09T02:24:24.399Z,2.90
2022-10-09T02:26:54.218Z,3.65
2022-10-09T02:29:21.895Z,3.13
2022-10-09T02:31:49.098Z,3.25
2022-10-09T02:34:20.230Z,3.50
2022-10-09T02:36:48.268Z,3.47
2022-10-09T02:39:15.428Z,4.30
2022-10-09T02:41:42.405Z,3.22
2022-10-09T02:44:22.048Z,3.67
2022-10-09T02:46:49.289Z,3.30
2022-10-09T02:49:16.234Z,3.22
2022-10-09T02:51:43.230Z,3.60
2022-10-09T02:54:10.487Z,3.58
2022-10-09T02:56:39.071Z,3.90
2022-10-09T02:59:06.928Z,3.60
2022-10-09T03:01:33.889Z,3.47
2022-10-09T03:04:00.811Z,3.22
2022-10-09T03:06:30.559Z,3.67
2022-10-09T03:08:57.595Z,3.42
2022-10-09T03:11:25.592Z,4.13
2022-10-09T03:13:52.659Z,4.07
2022-10-09T03:16:25.091Z,3.50
2022-10-09T03:18:53.110Z,3.10
2022-10-09T03:21:25.608Z,3.70
2022-10-09T03:23:53.526Z,3.80
2022-10-09T03:26:23.348Z,3.40
2022-10-09T03:28:51.757Z,3.45
2022-10-09T03:34:08.316Z,3.72
2022-10-09T03:36:35.191Z,3.20
2022-10-09T03:39:02.087Z,3.60
2022-10-09T03:41:29.031Z,3.35
2022-10-09T03:43:55.875Z,3.50
2022-10-09T03:46:22.814Z,4.47
2022-10-09T03:48:49.780Z,3.40
2022-10-09T03:51:16.784Z,3.40
2022-10-09T03:53:43.679Z,3.85
2022-10-09T03:56:10.610Z,2.95
2022-10-09T03:58:37.457Z,3.30
2022-10-09T04:01:04.444Z,3.15
2022-10-09T04:03:31.636Z,3.30
2022-10-09T04:05:58.470Z,3.30
2022-10-09T04:08:25.420Z,3.58
2022-10-09T04:10:59.796Z,3.60
2022-10-09T04:13:27.132Z,3.03
2022-10-09T04:15:55.066Z,3.55
2022-10-09T04:18:22.552Z,3.38
2022-10-09T04:20:51.334Z,3.50
2022-10-09T04:23:19.074Z,3.40
2022-10-09T04:25:46.519Z,3.88
2022-10-09T04:28:14.084Z,3.75
2022-10-09T04:30:41.415Z,3.65
2022-10-09T04:33:12.767Z,3.72
2022-10-09T04:35:43.691Z,4.10
2022-10-09T04:38:11.134Z,3.80
2022-10-09T04:40:38.069Z,4.03
2022-10-09T04:43:04.979Z,4.03
2022-10-09T04:45:32.259Z,4.00
2022-10-09T04:47:59.396Z,3.50
2022-10-09T04:50:26.289Z,4.00
2022-10-09T04:52:59.025Z,3.63
2022-10-09T04:55:26.023Z,3.30
2022-10-09T04:57:52.928Z,3.97
2022-10-09T05:00:19.932Z,3.75
2022-10-09T05:02:47.169Z,3.53
2022-10-09T05:05:14.464Z,3.63
2022-10-09T05:07:41.370Z,3.65
2022-10-09T05:10:08.708Z,3.90
2022-10-09T05:12:35.622Z,3.63
2022-10-09T05:15:02.698Z,3.55
2022-10-09T05:17:30.078Z,3.65
2022-10-09T05:19:57.053Z,3.85
2022-10-09T05:22:24.119Z,3.50
2022-10-09T05:24:51.079Z,3.72
2022-10-09T05:27:17.992Z,3.60
2022-10-09T05:29:44.947Z,3.53
2022-10-09T05:32:11.909Z,3.60
2022-10-09T05:34:38.832Z,3.80
2022-10-09T05:37:05.744Z,3.65
2022-10-09T05:39:32.676Z,3.30
2022-10-09T05:41:59.720Z,2.83
2022-10-09T05:44:26.703Z,3.22
2022-10-09T05:46:53.823Z,3.42
2022-10-09T05:49:20.733Z,3.75
2022-10-09T05:51:47.712Z,3.42
2022-10-09T05:54:17.736Z,4.13
2022-10-09T05:56:45.437Z,3.78
2022-10-09T05:59:19.811Z,4.13
2022-10-09T06:01:49.841Z,4.05
2022-10-09T06:04:22.064Z,5.20
2022-10-09T06:06:50.316Z,4.15
2022-10-09T06:09:23.322Z,3.92
2022-10-09T06:11:51.113Z,4.70
2022-10-09T06:14:18.627Z,4.60
2022-10-09T06:16:45.951Z,4.95
2022-10-09T06:19:15.572Z,5.70
2022-10-09T06:21:43.411Z,4.57
2022-10-09T06:24:20.607Z,5.38
2022-10-09T06:26:49.211Z,3.78
2022-10-09T06:29:16.502Z,4.25
2022-10-09T06:31:43.444Z,3.50
2022-10-09T06:34:11.078Z,5.00
2022-10-09T06:36:38.112Z,3.47
2022-10-09T06:39:07.646Z,4.00
2022-10-09T06:41:35.274Z,3.65
2022-10-09T06:44:16.626Z,3.85
2022-10-09T06:46:45.177Z,3.85
2022-10-09T06:49:12.574Z,3.55
2022-10-09T06:51:39.694Z,4.10
2022-10-09T06:54:13.464Z,3.75
2022-10-09T06:56:40.723Z,3.55
2022-10-09T06:59:08.153Z,4.05
2022-10-09T07:01:35.405Z,4.78
2022-10-09T07:04:07.171Z,3.80
2022-10-09T07:06:38.125Z,3.53
2022-10-09T07:09:09.255Z,4.15
2022-10-09T07:11:49.280Z,4.00
2022-10-09T07:14:17.143Z,4.20
2022-10-09T07:16:46.630Z,3.55
2022-10-09T07:19:15.537Z,4.07
2022-10-09T07:21:44.704Z,3.85
2022-10-09T07:24:12.521Z,3.92
2022-10-09T07:26:42.362Z,3.53
2022-10-09T07:29:11.077Z,4.00
2022-10-09T07:31:38.145Z,4.45
2022-10-09T07:34:06.446Z,3.72
2022-10-09T07:36:33.567Z,3.22
2022-10-09T07:39:00.843Z,3.47
2022-10-09T07:41:29.322Z,2.78
2022-10-09T07:43:56.879Z,4.00
2022-10-09T07:46:29.623Z,3.25
2022-10-09T07:48:59.302Z,3.67
2022-10-09T07:51:29.294Z,3.75
2022-10-09T07:53:57.497Z,3.80
2022-10-09T07:56:30.431Z,3.70
2022-10-09T07:58:59.594Z,3.22
2022-10-09T08:01:30.371Z,3.58
2022-10-09T08:03:58.488Z,3.72
2022-10-09T08:06:25.709Z,4.07
2022-10-09T08:08:54.767Z,3.67
2022-10-09T08:11:23.814Z,3.28
2022-10-09T08:13:51.447Z,3.08
2022-10-09T08:16:20.540Z,3.53
2022-10-09T08:18:48.718Z,3.35
2022-10-09T08:21:18.561Z,3.05
2022-10-09T08:23:46.109Z,3.17
2022-10-09T08:26:18.537Z,4.03
2022-10-09T08:28:53.250Z,3.85
2022-10-09T08:31:20.910Z,3.20
2022-10-09T08:33:48.112Z,3.50
2022-10-09T08:36:17.706Z,3.00
2022-10-09T08:38:47.670Z,3.33
2022-10-09T08:41:33.101Z,3.78
2022-10-09T08:44:10.576Z,3.60
2022-10-09T08:46:57.759Z,3.08
2022-10-09T08:49:57.962Z,3.50
2022-10-09T08:52:49.979Z,3.53
2022-10-09T08:55:28.752Z,3.60
2022-10-09T08:57:57.408Z,3.40
2022-10-09T09:00:28.776Z,3.40
2022-10-09T09:03:41.826Z,3.33
2022-10-09T09:06:56.562Z,3.13
2022-10-09T09:09:52.699Z,3.47
2022-10-09T09:12:44.099Z,3.17
2022-10-09T09:15:20.098Z,3.50
2022-10-09T09:17:59.431Z,3.60
2022-10-09T09:20:42.822Z,2.97
2022-10-09T09:23:15.517Z,3.20
2022-10-09T09:25:45.862Z,3.42
2022-10-09T09:28:20.334Z,3.22
2022-10-09T09:30:55.901Z,3.33
2022-10-09T09:36:20.184Z,3.42
2022-10-09T09:39:26.063Z,2.95
2022-10-09T09:41:36.236Z,2.83
2022-10-09T09:44:05.173Z,3.40
2022-10-09T09:46:32.564Z,2.85
2022-10-09T09:48:59.487Z,3.15
2022-10-09T09:51:31.093Z,3.20
2022-10-09T09:54:01.408Z,3.30
2022-10-09T09:57:10.441Z,2.78
2022-10-09T09:59:36.002Z,2.60
2022-10-09T10:05:08.524Z,4.20
2022-10-09T10:07:38.337Z,3.58
2022-10-09T10:10:08.009Z,2.85
2022-10-09T10:12:41.424Z,3.05
2022-10-09T10:15:22.013Z,2.90
2022-10-09T10:17:55.029Z,3.25
2022-10-09T10:20:22.112Z,3.08
2022-10-09T10:22:55.439Z,3.00
2022-10-09T10:25:28.657Z,3.08
2022-10-09T10:28:06.108Z,3.00
2022-10-09T10:30:35.614Z,3.10
2022-10-09T10:33:17.058Z,2.90
2022-10-09T10:35:44.664Z,2.80
2022-10-09T10:39:00.775Z,2.95
2022-10-09T10:41:40.694Z,3.10
2022-10-09T10:44:16.920Z,2.65
2022-10-09T10:46:53.522Z,3.42
2022-10-09T10:49:22.156Z,2.53
2022-10-09T10:52:07.571Z,2.80
2022-10-09T10:54:42.978Z,3.17
2022-10-09T10:57:15.685Z,3.22
2022-10-09T11:00:01.002Z,3.47
2022-10-09T11:02:56.533Z,3.17
2022-10-09T11:05:43.642Z,2.83
2022-10-09T11:08:39.650Z,2.75
2022-10-09T11:11:29.460Z,2.88
2022-10-09T11:13:56.696Z,2.63
2022-10-09T11:16:37.886Z,2.60
2022-10-09T11:19:07.502Z,3.00
2022-10-09T11:22:08.969Z,2.75
2022-10-09T11:24:38.654Z,3.28
2022-10-09T11:27:30.684Z,4.15
2022-10-09T11:30:02.720Z,2.97
2022-10-09T11:32:45.418Z,2.78
2022-10-09T11:35:12.405Z,2.65
2022-10-09T11:37:42.216Z,2.85
2022-10-09T11:40:17.100Z,3.15
2022-10-09T11:42:54.252Z,3.03
2022-10-09T11:45:24.439Z,3.00
2022-10-09T11:48:16.051Z,3.20
2022-10-09T11:50:54.568Z,3.13
2022-10-09T11:53:25.022Z,3.90
2022-10-09T11:56:09.173Z,4.10
2022-10-09T11:58:36.206Z,3.53
2022-10-09T12:01:21.880Z,3.50
2022-10-09T12:04:00.887Z,4.10
2022-10-09T12:06:29.223Z,3.38
2022-10-09T12:09:00.206Z,3.05
2022-10-09T12:11:28.691Z,3.47
2022-10-09T12:13:58.904Z,3.70
2022-10-09T12:16:40.850Z,3.97
2022-10-09T12:19:25.360Z,3.45
2022-10-09T12:21:55.570Z,3.97
2022-10-09T12:24:26.127Z,3.42
2022-10-09T12:26:55.618Z,3.35
2022-10-09T12:29:31.540Z,3.50
2022-10-09T12:32:05.148Z,3.30
2022-10-09T12:34:37.275Z,3.42
2022-10-09T12:37:17.351Z,3.53
2022-10-09T12:39:45.717Z,3.58
2022-10-09T12:42:38.859Z,3.65
2022-10-09T12:45:06.479Z,4.03
2022-10-09T12:47:35.263Z,3.83
2022-10-09T12:50:19.613Z,3.42
2022-10-09T12:52:59.366Z,4.07
2022-10-09T12:55:26.401Z,4.38
2022-10-09T12:57:54.849Z,4.80
2022-10-09T13:00:21.921Z,4.50
2022-10-09T13:02:49.341Z,4.68
2022-10-09T13:05:17.077Z,4.50
2022-10-09T13:07:52.762Z,4.60
2022-10-09T13:10:23.019Z,4.53
2022-10-09T13:12:53.277Z,4.13
2022-10-09T13:15:37.121Z,4.50
2022-10-09T13:18:21.952Z,4.07
2022-10-09T13:21:23.043Z,4.00
2022-10-09T13:23:50.444Z,3.72
2022-10-09T13:26:24.893Z,3.88
2022-10-09T13:28:52.678Z,3.25
2022-10-09T13:31:20.739Z,2.92
2022-10-09T13:33:48.458Z,2.97
2022-10-09T13:36:17.649Z,3.10
2022-10-09T13:38:45.391Z,2.78
2022-10-09T13:41:17.071Z,2.80
2022-10-09T13:43:44.427Z,3.40
2022-10-09T13:46:11.413Z,2.90
2022-10-09T13:48:38.270Z,3.13
2022-10-09T13:51:06.520Z,2.70
2022-10-09T13:53:33.716Z,2.45
2022-10-09T13:56:01.343Z,2.60
2022-10-09T13:58:28.951Z,3.03
2022-10-09T14:00:58.733Z,2.67
2022-10-09T14:03:28.526Z,3.25
2022-10-09T14:06:00.036Z,2.30
2022-10-09T14:08:26.945Z,3.42
2022-10-09T14:10:54.221Z,2.60
2022-10-09T14:13:21.909Z,2.85
2022-10-09T14:15:49.087Z,3.28
2022-10-09T14:18:16.033Z,3.22
2022-10-09T14:20:42.912Z,2.80
2022-10-09T14:23:09.900Z,2.92
2022-10-09T14:25:37.441Z,3.40
2022-10-09T14:28:04.411Z,2.90
2022-10-09T14:30:32.041Z,2.80
2022-10-09T14:32:59.568Z,2.75
2022-10-09T14:35:26.548Z,2.95
2022-10-09T14:37:53.673Z,3.58
2022-10-09T14:40:20.584Z,3.15
2022-10-09T14:42:47.837Z,3.05
2022-10-09T14:45:14.903Z,2.83
2022-10-09T14:47:41.816Z,3.00
2022-10-09T14:50:09.332Z,3.40
2022-10-09T14:52:36.301Z,3.50
2022-10-09T14:55:03.290Z,3.50
2022-10-09T14:57:35.185Z,3.65
2022-10-09T15:00:04.520Z,3.40
2022-10-09T15:02:33.566Z,3.88
2022-10-09T15:05:00.519Z,3.70
2022-10-09T15:07:28.365Z,3.00
2022-10-09T15:09:56.980Z,3.15
2022-10-09T15:12:23.996Z,3.60
2022-10-09T15:14:50.931Z,3.25
2022-10-09T15:17:17.806Z,3.40
2022-10-09T15:19:44.698Z,3.75
2022-10-09T15:22:11.592Z,4.35
2022-10-09T15:24:38.652Z,3.60
2022-10-09T15:27:05.803Z,3.80
2022-10-09T15:29:32.783Z,4.03
2022-10-09T15:31:59.841Z,4.00
2022-10-09T15:34:26.970Z,4.30
2022-10-09T15:36:53.801Z,3.90
2022-10-09T15:39:20.796Z,4.00
2022-10-09T15:41:47.881Z,4.03
2022-10-09T15:44:17.857Z,4.25
2022-10-09T15:46:46.504Z,3.95
2022-10-09T15:49:13.918Z,4.22
2022-10-09T15:51:42.909Z,4.63
2022-10-09T15:54:11.921Z,4.63
2022-10-09T15:56:40.161Z,4.80
2022-10-09T15:59:09.357Z,5.15
2022-10-09T16:01:36.374Z,5.90
2022-10-09T16:04:03.339Z,5.80
2022-10-09T16:06:30.403Z,6.05
2022-10-09T16:08:58.366Z,5.18
2022-10-09T16:11:26.814Z,5.85
2022-10-09T16:13:54.741Z,5.53
2022-10-09T16:16:25.665Z,5.05
2022-10-09T16:18:53.572Z,4.97
2022-10-09T16:21:24.148Z,5.70
2022-10-09T16:23:55.823Z,6.18
2022-10-09T16:26:26.787Z,6.13
2022-10-09T16:28:54.003Z,6.38
2022-10-09T16:31:25.216Z,5.75
2022-10-09T16:33:52.604Z,5.75
2022-10-09T16:36:19.603Z,5.43
2022-10-09T16:38:47.321Z,5.90
2022-10-09T16:41:18.008Z,5.75
2022-10-09T16:43:47.111Z,5.93
2022-10-09T16:46:29.414Z,5.88
2022-10-09T16:48:57.814Z,6.10
2022-10-09T16:51:34.138Z,5.65
2022-10-09T16:54:03.293Z,4.75
2022-10-09T16:56:33.402Z,4.90
2022-10-09T16:59:03.722Z,5.45
2022-10-09T17:01:30.832Z,4.68
2022-10-09T17:03:58.960Z,4.53
2022-10-09T17:06:27.292Z,4.88
2022-10-09T17:08:56.310Z,4.40
2022-10-09T17:11:25.654Z,4.45
2022-10-09T17:13:56.762Z,5.03
2022-10-09T17:16:27.854Z,5.45
2022-10-09T17:18:55.297Z,4.57
2022-10-09T17:21:22.201Z,4.95
2022-10-09T17:23:53.704Z,5.10
2022-10-09T17:26:22.316Z,4.60
2022-10-09T17:28:49.493Z,5.20
2022-10-09T17:31:22.326Z,4.90
2022-10-09T17:33:52.874Z,4.28
2022-10-09T17:36:22.750Z,4.40
2022-10-09T17:38:51.058Z,4.75
2022-10-09T17:41:21.640Z,4.72
2022-10-09T17:43:48.520Z,4.65
2022-10-09T17:46:15.941Z,4.65
2022-10-09T17:48:46.447Z,4.60
2022-10-09T17:51:20.033Z,4.40
2022-10-09T17:53:48.253Z,8.90
2022-10-09T17:56:15.593Z,4.95
2022-10-09T17:58:44.382Z,4.82
2022-10-09T18:01:12.011Z,4.45
2022-10-09T18:03:38.948Z,4.72
2022-10-09T18:06:08.213Z,4.30
2022-10-09T18:08:35.412Z,4.55
2022-10-09T18:11:07.670Z,4.22
2022-10-09T18:13:37.014Z,5.60
2022-10-09T18:16:08.470Z,4.35
2022-10-09T18:18:35.680Z,4.68
2022-10-09T18:21:08.635Z,4.55
2022-10-09T18:23:36.278Z,4.57
2022-10-09T18:26:11.162Z,4.82
2022-10-09T18:28:38.889Z,5.10
2022-10-09T18:31:11.366Z,4.68
2022-10-09T18:33:38.734Z,4.88
2022-10-09T18:36:14.033Z,6.10
2022-10-09T18:38:40.961Z,4.40
2022-10-09T18:41:08.982Z,5.32
2022-10-09T18:43:36.612Z,4.82
2022-10-09T18:46:03.822Z,5.07
2022-10-09T18:48:33.748Z,4.90
2022-10-09T18:51:02.685Z,5.18
2022-10-09T18:53:31.428Z,5.53
2022-10-09T18:55:59.005Z,5.65
2022-10-09T18:58:26.164Z,5.50
2022-10-09T19:00:53.256Z,5.32
2022-10-09T19:03:20.259Z,5.25
2022-10-09T19:05:47.200Z,5.78
2022-10-09T19:08:14.244Z,5.47
2022-10-09T19:10:41.184Z,5.63
2022-10-09T19:13:08.078Z,5.05
2022-10-09T19:15:35.363Z,5.85
2022-10-09T19:18:02.353Z,6.20
2022-10-09T19:20:29.407Z,5.20
2022-10-09T19:22:56.440Z,5.90
2022-10-09T19:25:23.441Z,5.20
2022-10-09T19:27:50.772Z,5.88
2022-10-09T19:30:18.004Z,5.47
2022-10-09T19:32:45.963Z,4.90
2022-10-09T19:35:12.977Z,5.47
2022-10-09T19:37:39.955Z,5.57
2022-10-09T19:40:07.469Z,4.97
2022-10-09T19:42:34.484Z,5.50
2022-10-09T19:45:01.421Z,5.25
2022-10-09T19:47:29.995Z,5.82
2022-10-09T19:49:56.970Z,4.88
2022-10-09T19:52:23.893Z,5.40
2022-10-09T19:54:50.985Z,5.00
2022-10-09T19:57:17.987Z,5.35
2022-10-09T19:59:45.012Z,5.60
2022-10-09T20:02:11.944Z,4.97
2022-10-09T20:04:39.468Z,5.43
2022-10-09T20:07:11.695Z,5.18
2022-10-09T20:09:39.689Z,5.55
2022-10-09T20:12:08.141Z,5.28
2022-10-09T20:14:35.038Z,5.32
2022-10-09T20:17:01.927Z,5.03
2022-10-09T20:19:31.064Z,5.53
2022-10-09T20:21:58.472Z,5.45
2022-10-09T20:24:25.452Z,4.88
2022-10-09T20:26:53.647Z,4.97
2022-10-09T20:29:20.600Z,5.00
2022-10-09T20:31:48.937Z,4.63
2022-10-09T20:34:16.935Z,4.75
2022-10-09T20:36:43.988Z,4.70
2022-10-09T20:39:13.657Z,4.38
2022-10-09T20:41:42.531Z,4.88
2022-10-09T20:44:11.047Z,5.05
2022-10-09T20:46:39.665Z,4.78
2022-10-09T20:49:10.360Z,4.55
2022-10-09T20:51:38.946Z,4.32
2022-10-09T20:54:07.547Z,4.60
2022-10-09T20:56:35.016Z,5.10
2022-10-09T20:59:03.076Z,4.55
2022-10-09T21:01:30.192Z,4.47
2022-10-09T21:03:59.279Z,4.95
2022-10-09T21:06:27.120Z,4.40
2022-10-09T21:08:54.713Z,4.20
2022-10-09T21:11:22.257Z,3.55
2022-10-09T21:13:50.041Z,3.83
2022-10-09T21:16:23.499Z,4.15
2022-10-09T21:18:58.515Z,4.15
2022-10-09T22:06:02.191Z,2.47
2022-10-09T22:08:29.079Z,2.38
2022-10-09T22:10:56.033Z,2.67
2022-10-09T22:13:22.910Z,2.50
2022-10-09T22:15:51.379Z,2.67
2022-10-09T22:18:19.411Z,2.80
2022-10-09T22:20:49.727Z,2.97
2022-10-09T22:23:20.690Z,2.65
2022-10-09T22:26:05.735Z,2.85
2022-10-09T22:28:33.186Z,2.90
2022-10-09T22:31:02.265Z,2.90
2022-10-09T22:33:29.605Z,2.40
2022-10-09T22:36:22.232Z,2.72
2022-10-09T22:38:49.168Z,2.78
2022-10-09T22:41:19.412Z,2.60
2022-10-09T22:43:49.351Z,2.47
2022-10-09T22:46:25.254Z,2.80
2022-10-09T22:48:52.666Z,2.80
2022-10-09T22:51:21.778Z,2.70
2022-10-09T22:53:50.024Z,2.70
2022-10-09T22:56:20.289Z,2.72
2022-10-09T22:58:48.326Z,2.75
2022-10-09T23:01:25.283Z,2.72
2022-10-09T23:03:52.511Z,2.70
2022-10-09T23:06:20.768Z,3.08
2022-10-09T23:08:48.286Z,2.58
2022-10-09T23:11:16.750Z,2.80
2022-10-09T23:13:45.850Z,2.55
2022-10-09T23:16:15.335Z,2.70
2022-10-09T23:18:43.423Z,2.83
2022-10-09T23:21:14.015Z,2.88
2022-10-09T23:23:44.183Z,2.60
2022-10-09T23:26:14.449Z,2.67
2022-10-09T23:28:42.600Z,3.25
2022-10-09T23:31:12.647Z,2.58
2022-10-09T23:33:41.693Z,2.80
2022-10-09T23:36:11.245Z,3.15
2022-10-09T23:38:38.956Z,3.00
2022-10-09T23:41:08.996Z,3.60
2022-10-09T23:43:38.034Z,3.13
2022-10-09T23:46:06.966Z,3.30
2022-10-09T23:48:34.433Z,2.80
2022-10-09T23:51:01.592Z,2.83
2022-10-09T23:53:28.841Z,2.90
2022-10-09T23:55:55.715Z,3.10
2022-10-09T23:58:23.514Z,2.75
